17/11/2018 - Bankers Life Fieldhouse, Indianapolis, IN. Temporada Regular

Indiana Pacers - 97

Atlanta Hawks - 89

  • Árbitros: Scott Foster,Brian Forte,Ray Acosta
  • Asistencia: 17491 espectadores
  • Duración del partido: 2:18 horas
  • Número de empates durante el partido: 6
  • Cambios de líder: 14 veces

Dobles-Dobles

Tabla estadísticas

Atlanta Hawks - 89
Jugador Min TC T3 TL +/- rebO rebD reb asis fp rob per tap tr Val ptos
Kent Bazemore 30:34 5/14 2/4 1/2 16 1 4 5 4 3 4 1 1 0 16 13
Kevin Huerter 29:17 2/9 1/4 0/1 -15 0 3 3 3 2 1 2 1 0 3 5
Jeremy Lin 24:17 7/11 2/3 0/0 6 0 4 4 4 5 3 4 0 0 19 16
Trae Young 23:42 3/11 0/5 3/4 -14 0 1 1 4 2 1 3 0 0 3 9
DeAndre Bembry 22:40 3/10 0/3 2/2 -6 0 4 4 2 1 1 1 0 0 7 8
Dewayne Dedmon 22:39 4/5 1/2 3/3 -14 0 7 7 1 3 0 3 1 0 17 12
Alex Len 20:26 1/7 0/1 3/4 6 2 2 4 2 2 1 0 0 0 5 5
Vince Carter 16:10 2/8 2/5 1/2 -12 0 4 4 0 2 1 0 0 0 5 7
Tyler Dorsey 14:23 0/3 0/1 0/0 -9 0 2 2 0 0 1 1 0 0 -1 0
Omari Spellman 12:23 1/3 0/0 0/2 -13 1 1 2 0 2 2 0 0 0 2 2
John Collins 12:07 3/6 0/1 6/7 14 1 1 2 0 1 0 3 1 0 8 12
Alex Poythress 11:19 0/0 0/0 0/0 1 0 3 3 0 1 0 0 2 0 5 0
Total / / / -40 89
Indiana Pacers - 97
Jugador Min TC T3 TL +/- rebO rebD reb asis fp rob per tap tr Val ptos
Victor Oladipo 4:38 0/1 0/0 2/2 2 0 2 2 1 0 0 1 0 0 3 2
TJ Leaf 3:49 0/0 0/0 0/0 -7 0 0 0 1 1 1 0 1 0 3 0
Kyle O'Quinn 2:31 0/1 0/0 0/0 -10 2 1 3 0 1 0 0 1 0 3 0
Cory Joseph 29:32 2/8 0/2 0/0 2 0 3 3 5 3 5 7 0 0 4 4
Domantas Sabonis 28:28 4/7 0/0 1/1 9 4 12 16 6 4 1 1 1 0 29 9
Bojan Bogdanovic 28:17 7/12 3/5 5/5 6 0 4 4 0 2 0 4 0 0 17 22
Thaddeus Young 26:44 4/11 0/1 3/5 11 2 5 7 2 4 0 0 0 0 11 11
Darren Collison 26:16 4/10 2/3 2/2 6 1 1 2 5 3 2 1 0 0 14 12
Doug McDermott 25:27 2/8 0/4 0/0 5 0 1 1 1 1 1 0 0 0 1 4
Myles Turner 24:39 4/11 2/4 0/2 13 1 9 10 2 2 0 3 3 0 13 10
Tyreke Evans 24:25 4/12 2/7 1/2 -7 0 2 2 0 1 1 3 0 0 2 11
Aaron Holiday 15:14 4/6 3/4 1/2 10 0 3 3 2 4 0 2 0 0 12 12
Total / / / 40 112



temporada 201819

Calendario por equipos

Selecciona equipo NBA y tipo partidos

enfrentamientos equipos

Selecciona enfrentamiento equipos NBA